Time;durP1;ratioP1;P1;durP2;ratioP2;P2;SDS_P1;SDS_P2;PMS_P1;PMS_P2;Temp;Humidity;BMP_temperature;BMP_pressure;BME280_temperature;BME280_humidity;BME280_pressure;Samples;Min_cycle;Max_cycle;Signal;HPM_P1;HPM_P2
2023/07/12 00:00:49;;;;;;;;;3.67;3.67;;;;;25.34;52.94;100709.25;5078357;27;46592;-67
2023/07/12 00:03:16;;;;;;;;;3.00;3.00;;;;;24.78;53.30;100607.44;5078434;27;45494;-69
2023/07/12 00:05:42;;;;;;;;;3.33;3.00;;;;;25.25;53.51;100700.66;5078181;28;45225;-67
2023/07/12 00:08:17;;;;;;;;;3.33;3.33;;;;;25.42;53.07;100717.03;5078837;27;45461;-68
2023/07/12 00:10:42;;;;;;;;;4.33;4.33;;;;;25.37;53.37;100703.31;5078097;28;45873;-67
2023/07/12 00:13:10;;;;;;;;;4.33;3.67;;;;;24.85;52.90;100608.16;5078168;28;46323;-69
2023/07/12 00:15:37;;;;;;;;;3.00;3.00;;;;;25.49;52.93;100712.28;5078431;28;45306;-69
2023/07/12 00:18:03;;;;;;;;;4.33;3.00;;;;;25.52;52.67;100717.25;5078498;28;45287;-69
2023/07/12 00:20:30;;;;;;;;;4.33;3.00;;;;;25.54;52.55;100714.28;5078079;28;46059;-69
2023/07/12 00:22:56;;;;;;;;;3.67;3.67;;;;;25.56;52.52;100718.41;5076994;27;46598;-69
2023/07/12 00:25:27;;;;;;;;;2.67;2.67;;;;;25.55;52.12;100711.31;5077805;28;45569;-68
2023/07/12 00:27:52;;;;;;;;;5.00;4.00;;;;;25.57;52.30;100719.22;5078381;28;45277;-69
2023/07/12 00:30:27;;;;;;;;;3.00;2.00;;;;;25.31;52.47;100693.41;5078006;28;45588;-70
2023/07/12 00:32:55;;;;;;;;;3.00;3.00;;;;;25.55;52.32;100724.91;5078110;28;45497;-69
2023/07/12 00:35:23;;;;;;;;;3.00;3.00;;;;;25.56;52.32;100723.84;5077839;28;45411;-70
2023/07/12 00:37:52;;;;;;;;;4.67;3.33;;;;;25.59;52.43;100728.78;5078335;27;45431;-69
2023/07/12 00:40:29;;;;;;;;;4.00;4.00;;;;;25.59;52.11;100728.78;5077503;28;46589;-68
2023/07/12 00:43:04;;;;;;;;;3.00;3.00;;;;;25.53;52.26;100718.06;5077830;28;45491;-69
2023/07/12 00:45:32;;;;;;;;;2.00;2.00;;;;;25.50;52.34;100722.09;5078043;28;45470;-68
2023/07/12 00:47:57;;;;;;;;;2.00;2.00;;;;;25.57;51.54;100736.38;5077942;28;45567;-68
2023/07/12 00:50:23;;;;;;;;;1.00;1.00;;;;;25.51;52.10;100725.66;5077545;28;45816;-69
2023/07/12 00:52:48;;;;;;;;;3.33;2.00;;;;;25.45;52.39;100732.91;5076938;28;64818;-69
2023/07/12 00:55:51;;;;;;;;;1.00;1.00;;;;;25.40;52.68;100735.50;5077891;28;45462;-69
2023/07/12 00:58:16;;;;;;;;;1.00;1.00;;;;;25.17;52.39;100696.41;5037650;28;45419;-69
2023/07/12 01:00:42;;;;;;;;;3.67;2.67;;;;;25.42;53.11;100738.81;5037033;28;46565;-69
2023/07/12 01:03:12;;;;;;;;;4.00;2.00;;;;;25.28;52.89;100712.97;5035881;28;45338;-67
2023/07/12 01:05:39;;;;;;;;;4.00;1.00;;;;;25.05;52.56;100673.88;5037231;28;45485;-69
2023/07/12 01:08:05;;;;;;;;;2.67;2.67;;;;;25.38;52.11;100740.34;5037429;28;45347;-68
2023/07/12 01:10:31;;;;;;;;;1.33;1.33;;;;;25.33;51.98;100729.38;5036788;28;45256;-69
2023/07/12 01:12:56;;;;;;;;;6.33;4.00;;;;;25.32;52.49;100730.44;5036772;28;48830;-69
2023/07/12 01:15:21;;;;;;;;;2.00;2.00;;;;;25.28;52.49;100727.38;5036278;28;66406;-68
2023/07/12 01:17:46;;;;;;;;;4.00;2.00;;;;;24.89;52.45;100674.59;5035931;28;45592;-69
2023/07/12 01:20:12;;;;;;;;;3.33;2.67;;;;;25.20;52.56;100740.53;5036951;28;45638;-69
2023/07/12 01:22:37;;;;;;;;;2.00;2.00;;;;;25.18;52.15;100735.31;5037253;28;45317;-69
2023/07/12 01:25:03;;;;;;;;;2.00;2.00;;;;;25.09;52.09;100724.00;5036484;28;49289;-70
2023/07/12 01:27:31;;;;;;;;;3.00;1.00;;;;;25.18;52.21;100749.75;5035912;28;45246;-69
2023/07/12 01:29:57;;;;;;;;;3.00;2.00;;;;;25.17;52.44;100758.16;5036744;28;45741;-69
2023/07/12 01:32:23;;;;;;;;;1.50;1.50;;;;;25.05;51.99;100749.22;5036716;28;45508;-68
2023/07/12 01:34:48;;;;;;;;;1.33;1.33;;;;;24.88;52.04;100749.09;5055599;28;45420;-67
2023/07/12 01:37:13;;;;;;;;;2.33;2.33;;;;;24.44;52.04;100688.00;5040045;28;51717;-67
2023/07/12 01:39:39;;;;;;;;;2.00;2.00;;;;;24.81;51.68;100764.69;5039873;28;45447;-69
2023/07/12 01:42:04;;;;;;;;;1.00;1.00;;;;;24.73;51.73;100751.44;5039806;28;55972;-68
2023/07/12 01:44:30;;;;;;;;;1.00;1.00;;;;;24.70;51.79;100758.19;5040188;28;45581;-68
2023/07/12 01:46:55;;;;;;;;;2.00;2.00;;;;;24.71;51.82;100759.84;5040447;28;45271;-69
2023/07/12 01:49:21;;;;;;;;;3.00;1.00;;;;;24.65;51.99;100749.94;5040119;28;46429;-69
2023/07/12 01:51:46;;;;;;;;;0.67;0.67;;;;;24.60;51.66;100765.28;5040160;28;45260;-71
2023/07/12 01:54:12;;;;;;;;;1.67;1.00;;;;;24.44;51.69;100751.34;5038806;28;45302;-70
2023/07/12 01:56:37;;;;;;;;;0.50;0.00;;;;;24.41;51.54;100759.94;5054292;28;45434;-69
2023/07/12 01:59:03;;;;;;;;;0.00;0.00;;;;;24.32;51.86;100769.50;5061933;27;49309;-70
2023/07/12 02:01:28;;;;;;;;;2.33;1.00;;;;;24.24;51.70;100756.25;5080205;27;45217;-69
2023/07/12 02:03:53;;;;;;;;;1.00;1.00;;;;;24.34;52.11;100780.13;5080350;28;45414;-69
2023/07/12 02:06:19;;;;;;;;;2.00;0.00;;;;;24.30;51.50;100785.22;5080481;28;45415;-70
2023/07/12 02:08:44;;;;;;;;;1.00;1.00;;;;;24.21;51.88;100778.41;5061790;28;47801;-69
2023/07/12 02:11:10;;;;;;;;;1.00;1.00;;;;;24.10;52.45;100771.91;5080078;27;45348;-70
2023/07/12 02:13:36;;;;;;;;;0.67;0.67;;;;;24.08;52.03;100776.75;5080287;27;45213;-69
2023/07/12 02:16:02;;;;;;;;;0.00;0.00;;;;;24.14;52.23;100780.41;5080546;28;45617;-69
2023/07/12 02:18:27;;;;;;;;;0.00;0.00;;;;;24.10;51.82;100790.94;5079901;28;46005;-69
2023/07/12 02:20:52;;;;;;;;;0.00;0.00;;;;;23.93;52.05;100782.59;5080228;27;45480;-69
2023/07/12 02:23:18;;;;;;;;;0.00;0.00;;;;;23.89;51.45;100784.13;5080108;27;45307;-69
2023/07/12 02:25:43;;;;;;;;;0.00;0.00;;;;;23.81;51.61;100787.16;5061708;28;45324;-68
2023/07/12 02:28:09;;;;;;;;;0.00;0.00;;;;;23.81;51.55;100797.19;5079802;27;46312;-69
2023/07/12 02:30:34;;;;;;;;;0.00;0.00;;;;;23.77;52.05;100798.69;5080061;27;45415;-69
2023/07/12 02:33:00;;;;;;;;;0.00;0.00;;;;;23.66;52.01;100789.47;5061873;28;45531;-70
2023/07/12 02:35:29;;;;;;;;;1.00;0.00;;;;;23.64;52.36;100802.44;5061550;28;45570;-69
2023/07/12 02:37:58;;;;;;;;;0.00;0.00;;;;;23.59;52.89;100802.28;5079829;27;46076;-69
2023/07/12 02:40:25;;;;;;;;;0.00;0.00;;;;;23.57;52.82;100793.53;5079474;27;45268;-69
2023/07/12 02:42:51;;;;;;;;;0.00;0.00;;;;;23.59;52.91;100796.84;5079797;27;45467;-69
2023/07/12 02:45:17;;;;;;;;;0.00;0.00;;;;;23.57;52.56;100790.81;5078963;28;45248;-69
2023/07/12 02:47:42;;;;;;;;;0.00;0.00;;;;;23.54;52.57;100804.81;5079417;27;45470;-69
2023/07/12 02:50:08;;;;;;;;;0.00;0.00;;;;;23.45;53.01;100789.91;5079660;28;45426;-70
2023/07/12 02:52:34;;;;;;;;;2.00;0.33;;;;;23.56;53.53;100809.00;5079903;28;45220;-67
2023/07/12 02:54:59;;;;;;;;;0.67;0.67;;;;;23.66;52.78;100811.19;5079780;28;45528;-69
2023/07/12 02:57:24;;;;;;;;;1.00;1.00;;;;;23.62;53.01;100805.34;5079123;28;45728;-69
2023/07/12 02:59:50;;;;;;;;;1.00;1.00;;;;;23.56;52.55;100800.84;5079477;27;45183;-68
2023/07/12 03:02:15;;;;;;;;;0.00;0.00;;;;;23.61;52.36;100819.97;5079706;27;45351;-70
2023/07/12 03:04:41;;;;;;;;;1.00;0.00;;;;;23.54;52.56;100823.81;5080020;28;45173;-69
2023/07/12 03:07:06;;;;;;;;;0.00;0.00;;;;;23.50;52.80;100822.63;5079373;28;46650;-70
2023/07/12 03:09:32;;;;;;;;;0.00;0.00;;;;;23.09;52.49;100769.88;5079089;28;45364;-68
2023/07/12 03:11:57;;;;;;;;;0.00;0.00;;;;;23.43;52.57;100830.00;5079468;28;45431;-69
2023/07/12 03:14:24;;;;;;;;;1.00;0.00;;;;;23.40;52.83;100839.41;5061282;28;45610;-69
2023/07/12 03:16:50;;;;;;;;;1.00;0.33;;;;;23.32;53.20;100832.41;5060909;28;46470;-69
2023/07/12 03:19:17;;;;;;;;;1.00;1.00;;;;;23.26;53.26;100829.78;5079238;27;45590;-69
2023/07/12 03:21:45;;;;;;;;;0.00;0.00;;;;;22.87;53.47;100776.78;5079172;28;45182;-69
2023/07/12 03:24:10;;;;;;;;;0.00;0.00;;;;;23.17;53.22;100837.38;5079299;27;45274;-68
2023/07/12 03:26:36;;;;;;;;;0.00;0.00;;;;;23.17;53.66;100840.06;5078598;27;46432;-68
2023/07/12 03:29:03;;;;;;;;;0.00;0.00;;;;;23.22;53.47;100848.38;5079240;28;45365;-67
2023/07/12 03:31:29;;;;;;;;;0.00;0.00;;;;;23.22;53.34;100842.94;5060705;28;45319;-69
2023/07/12 03:33:55;;;;;;;;;0.00;0.00;;;;;23.25;53.28;100841.69;5079296;28;45428;-68
2023/07/12 03:36:24;;;;;;;;;0.33;0.33;;;;;23.12;53.68;100848.06;5078591;27;46858;-69
2023/07/12 03:38:49;;;;;;;;;1.33;0.00;;;;;23.17;53.36;100840.06;5078583;27;45176;-68
2023/07/12 03:41:17;;;;;;;;;1.00;1.00;;;;;23.17;53.05;100840.06;5078508;28;45501;-68
2023/07/12 03:43:42;;;;;;;;;0.00;0.00;;;;;23.14;53.60;100831.56;5079345;28;45469;-69
2023/07/12 03:46:08;;;;;;;;;0.00;0.00;;;;;23.14;53.21;100834.28;5060297;28;48156;-68
2023/07/12 03:48:33;;;;;;;;;0.00;0.00;;;;;23.21;53.23;100854.84;5078421;28;45471;-68
2023/07/12 03:50:59;;;;;;;;;0.00;0.00;;;;;23.22;52.58;100853.78;5078642;27;45285;-69
2023/07/12 03:53:27;;;;;;;;;0.00;0.00;;;;;23.15;52.70;100842.19;5078784;27;45565;-69
2023/07/12 03:55:52;;;;;;;;;2.00;1.00;;;;;22.90;52.62;100803.44;5077590;28;46687;-70
2023/07/12 03:58:20;;;;;;;;;1.00;1.00;;;;;23.18;51.92;100852.59;5078421;28;45179;-69
2023/07/12 04:00:48;;;;;;;;;0.00;0.00;;;;;22.51;51.78;100743.09;5078570;28;45317;-68
2023/07/12 04:03:15;;;;;;;;;2.33;0.00;;;;;22.75;51.96;100791.03;5078459;28;45540;-69
2023/07/12 04:05:42;;;;;;;;;0.00;0.00;;;;;23.16;51.94;100860.13;5078154;28;46602;-69
2023/07/12 04:08:10;;;;;;;;;1.00;1.00;;;;;23.18;51.87;100865.31;5077922;28;45569;-68
2023/07/12 04:10:36;;;;;;;;;1.00;1.00;;;;;22.94;51.92;100835.31;5078138;28;45498;-68
2023/07/12 04:13:02;;;;;;;;;0.00;0.00;;;;;23.05;50.95;100874.44;5078706;28;45228;-69
2023/07/12 04:15:27;;;;;;;;;1.00;1.00;;;;;23.06;50.73;100876.09;5077914;27;46408;-68
2023/07/12 04:17:53;;;;;;;;;1.00;1.00;;;;;22.96;50.23;100876.56;5077739;28;45317;-68
2023/07/12 04:20:18;;;;;;;;;1.67;1.00;;;;;22.94;49.86;100878.69;5078177;28;45410;-68
2023/07/12 04:22:47;;;;;;;;;2.33;1.67;;;;;22.89;49.78;100881.25;5078096;27;45611;-68
2023/07/12 04:25:13;;;;;;;;;2.00;1.00;;;;;22.85;50.07;100873.78;5077412;28;46206;-68
2023/07/12 04:27:38;;;;;;;;;3.33;2.00;;;;;22.87;50.31;100877.09;5059618;28;45448;-68
2023/07/12 04:30:04;;;;;;;;;1.00;1.00;;;;;22.77;50.60;100881.09;5077958;27;45406;-68
2023/07/12 04:32:30;;;;;;;;;2.67;1.00;;;;;22.84;50.04;100901.94;5078156;28;45415;-68
2023/07/12 04:34:55;;;;;;;;;1.67;1.67;;;;;21.84;50.13;100742.75;5077026;28;58968;-70
2023/07/12 04:37:21;;;;;;;;;3.33;2.33;;;;;22.80;51.24;100900.66;5077852;27;45284;-69
2023/07/12 04:39:47;;;;;;;;;2.67;2.67;;;;;22.79;51.23;100899.84;5077538;28;45378;-68
2023/07/12 04:42:12;;;;;;;;;2.00;1.00;;;;;22.80;51.14;100909.63;5059666;28;45507;-69
2023/07/12 04:44:38;;;;;;;;;2.00;1.00;;;;;22.78;50.33;100911.72;5077608;28;46507;-68
2023/07/12 04:47:05;;;;;;;;;3.00;1.67;;;;;22.80;50.76;100917.75;5077521;27;45473;-70
2023/07/12 04:49:30;;;;;;;;;3.00;1.00;;;;;22.70;50.81;100915.56;5077727;28;45439;-69
2023/07/12 04:51:57;;;;;;;;;2.00;2.00;;;;;22.71;50.38;100911.78;5059417;28;45681;-69
2023/07/12 04:54:22;;;;;;;;;1.00;0.33;;;;;22.72;50.60;100915.31;5077285;27;45791;-68
2023/07/12 04:56:47;;;;;;;;;2.00;2.00;;;;;22.27;50.52;100849.56;5076840;27;47494;-68
2023/07/12 04:59:13;;;;;;;;;2.00;2.00;;;;;22.61;51.04;100911.44;5076208;28;45430;-68
2023/07/12 05:01:38;;;;;;;;;1.33;1.33;;;;;22.63;50.80;100933.75;5077873;28;45486;-68
2023/07/12 05:04:03;;;;;;;;;2.67;2.33;;;;;22.56;50.71;100919.38;5077707;28;46352;-68
2023/07/12 05:06:31;;;;;;;;;3.67;2.33;;;;;22.60;50.44;100930.63;5077214;27;45391;-68
2023/07/12 05:08:56;;;;;;;;;1.00;1.00;;;;;22.56;50.38;100915.84;5058274;28;45517;-68
2023/07/12 05:11:22;;;;;;;;;2.67;1.00;;;;;22.64;50.52;100927.28;5076826;27;47616;-68
2023/07/12 05:13:47;;;;;;;;;2.50;1.75;;;;;22.65;51.14;100928.94;5077329;28;45745;-69
2023/07/12 05:16:13;;;;;;;;;3.00;1.75;;;;;22.65;50.47;100928.09;5077176;28;45312;-67
2023/07/12 05:18:38;;;;;;;;;1.00;1.00;;;;;22.64;50.13;100938.13;5077250;28;45432;-68
2023/07/12 05:21:03;;;;;;;;;1.00;1.00;;;;;22.59;50.34;100945.22;5077156;28;45306;-69
2023/07/12 05:23:32;;;;;;;;;3.00;3.00;;;;;22.60;50.63;100941.47;5077226;27;45696;-69
2023/07/12 05:25:57;;;;;;;;;3.67;1.67;;;;;22.62;50.06;100944.78;5058498;28;45254;-69
2023/07/12 05:28:22;;;;;;;;;2.00;2.00;;;;;22.48;49.96;100949.47;5077119;28;45193;-69
2023/07/12 05:30:48;;;;;;;;;2.00;2.00;;;;;22.59;50.14;100958.75;5058803;28;45847;-70
2023/07/12 05:33:14;;;;;;;;;2.00;2.00;;;;;22.63;49.36;100960.00;5052997;28;47969;-70
2023/07/12 05:35:39;;;;;;;;;1.00;1.00;;;;;22.68;49.23;100971.84;5075710;28;45403;-68
2023/07/12 05:38:04;;;;;;;;;1.33;1.33;;;;;22.69;49.53;100953.72;5075468;28;53033;-72
2023/07/12 05:40:30;;;;;;;;;1.00;1.00;;;;;22.78;49.72;100963.22;5056943;28;56832;-69
2023/07/12 05:42:56;;;;;;;;;2.33;2.33;;;;;22.90;48.87;100963.41;5058442;28;48701;-68
2023/07/12 05:45:23;;;;;;;;;1.67;1.67;;;;;22.87;48.72;100955.72;5057472;28;45862;-69
2023/07/12 05:47:49;;;;;;;;;1.00;1.00;;;;;22.97;48.83;100977.72;5057114;28;45579;-69
2023/07/12 05:50:17;;;;;;;;;6.33;4.67;;;;;22.97;48.11;100961.47;5075293;27;45622;-70
2023/07/12 05:52:42;;;;;;;;;2.33;2.00;;;;;23.03;47.57;100968.75;5074489;27;45791;-69
2023/07/12 05:55:10;;;;;;;;;2.00;2.00;;;;;23.04;47.79;100975.81;5074779;28;45272;-68
2023/07/12 05:57:36;;;;;;;;;2.00;2.00;;;;;22.99;47.80;100970.22;5076329;28;45522;-67
2023/07/12 06:00:03;;;;;;;;;1.75;0.75;;;;;22.98;48.56;100976.69;5058835;28;45415;-69
2023/07/12 06:02:28;;;;;;;;;2.00;1.00;;;;;23.01;47.64;100979.78;5077052;27;45941;-70
2023/07/12 06:04:54;;;;;;;;;1.00;1.00;;;;;23.34;47.75;100978.69;5076537;27;45280;-68
2023/07/12 06:07:19;;;;;;;;;3.50;3.50;;;;;23.86;46.23;100954.81;5074392;27;45366;-70
2023/07/12 06:09:44;;;;;;;;;1.25;1.00;;;;;24.20;45.81;100985.94;5074010;27;45379;-70
2023/07/12 06:12:10;;;;;;;;;4.00;3.00;;;;;23.96;45.62;100947.78;5076814;28;46745;-68
2023/07/12 06:14:36;;;;;;;;;1.00;1.00;;;;;24.20;44.95;100981.34;5076449;28;45422;-69
2023/07/12 06:17:02;;;;;;;;;1.25;1.00;;;;;24.20;45.11;100994.09;5076549;27;45226;-69
2023/07/12 06:19:27;;;;;;;;;2.50;2.50;;;;;24.08;44.43;100971.50;5072152;28;45968;-67
2023/07/12 06:21:52;;;;;;;;;2.00;2.00;;;;;24.18;44.65;100993.50;5058408;28;62421;-68
2023/07/12 06:24:18;;;;;;;;;1.00;0.67;;;;;24.37;44.85;100992.47;5061460;28;45340;-68
2023/07/12 06:26:43;;;;;;;;;4.00;1.00;;;;;25.03;43.42;100988.84;5079672;28;45312;-70
2023/07/12 06:29:09;;;;;;;;;3.00;3.00;;;;;25.02;42.09;100951.78;5078708;28;45503;-69
2023/07/12 06:31:34;;;;;;;;;1.00;1.00;;;;;25.25;42.15;100988.28;5079599;28;46947;-69
2023/07/12 06:34:02;;;;;;;;;1.00;1.00;;;;;25.24;42.31;101002.97;5079567;28;45281;-69
2023/07/12 06:36:28;;;;;;;;;2.67;2.00;;;;;25.27;42.28;100999.75;5079349;28;45419;-68
2023/07/12 06:38:53;;;;;;;;;2.00;2.00;;;;;25.11;42.23;101010.25;5078647;27;45351;-69
2023/07/12 06:41:19;;;;;;;;;2.75;1.50;;;;;25.04;42.84;101014.16;5079223;28;47070;-68
2023/07/12 06:43:44;;;;;;;;;1.67;1.67;;;;;24.90;42.75;101008.03;5079188;28;45434;-69
2023/07/12 06:46:10;;;;;;;;;3.33;2.00;;;;;24.83;43.49;101018.19;5079569;27;45241;-68
2023/07/12 06:48:35;;;;;;;;;2.00;2.00;;;;;24.74;43.48;101014.13;5079554;27;45463;-68
2023/07/12 06:51:00;;;;;;;;;2.00;2.00;;;;;24.47;43.25;100981.06;5077231;27;47727;-69
2023/07/12 06:53:26;;;;;;;;;1.50;1.50;;;;;24.46;42.83;100993.00;5079073;28;45343;-71
2023/07/12 06:55:52;;;;;;;;;2.33;2.33;;;;;24.17;43.11;100945.66;5078587;28;45391;-68
2023/07/12 06:58:17;;;;;;;;;2.50;1.50;;;;;24.74;43.62;101005.97;5060364;28;45256;-69
2023/07/12 07:00:44;;;;;;;;;3.00;2.00;;;;;24.81;43.00;101025.72;5076863;27;47201;-69
2023/07/12 07:03:11;;;;;;;;;1.33;1.33;;;;;24.65;42.86;101005.47;5078532;27;45469;-69
2023/07/12 07:05:39;;;;;;;;;2.33;1.00;;;;;24.65;43.32;101015.53;5071060;27;45481;-70
2023/07/12 07:08:04;;;;;;;;;2.00;2.00;;;;;24.66;42.57;101012.56;5099322;27;45431;-68
2023/07/12 07:10:30;;;;;;;;;2.00;1.00;;;;;24.58;42.63;101029.19;5098573;27;46334;-69
2023/07/12 07:12:55;;;;;;;;;2.00;1.33;;;;;24.59;42.21;101041.72;5098876;27;45424;-69
2023/07/12 07:15:20;;;;;;;;;1.00;1.00;;;;;24.68;42.55;101036.81;5098761;27;45335;-69
2023/07/12 07:17:46;;;;;;;;;6.67;4.00;;;;;24.78;42.34;101037.91;5099698;27;45331;-70
2023/07/12 07:20:12;;;;;;;;;3.33;2.00;;;;;24.93;42.12;101023.91;5092427;27;46454;-70
2023/07/12 07:22:37;;;;;;;;;1.50;1.50;;;;;25.04;41.49;101039.47;5078583;28;45637;-70
2023/07/12 07:25:03;;;;;;;;;4.00;3.33;;;;;25.10;41.66;101030.38;5076203;27;45615;-74
2023/07/12 07:27:29;;;;;;;;;2.00;2.00;;;;;25.23;40.97;101034.78;5054330;28;45302;-70
2023/07/12 07:29:55;;;;;;;;;1.00;1.00;;;;;25.34;40.23;101014.06;5058391;28;45897;-67
2023/07/12 07:32:21;;;;;;;;;1.00;1.00;;;;;25.29;39.96;100979.41;5075445;27;45384;-68
2023/07/12 07:34:46;;;;;;;;;2.67;1.67;;;;;25.77;39.07;101032.84;5078694;27;45494;-69
2023/07/12 07:37:12;;;;;;;;;3.00;1.00;;;;;25.81;39.35;101035.91;5076107;28;45534;-69
2023/07/12 07:39:37;;;;;;;;;1.00;1.00;;;;;25.81;39.30;101036.72;5077386;27;46882;-69
2023/07/12 07:42:03;;;;;;;;;2.00;2.00;;;;;25.82;39.35;101026.66;5046890;28;45499;-69
2023/07/12 07:44:28;;;;;;;;;2.00;2.00;;;;;25.85;39.53;101048.00;5058213;28;45345;-72
2023/07/12 07:46:53;;;;;;;;;2.00;2.00;;;;;25.54;39.87;100984.63;5078278;27;45436;-70
2023/07/12 07:49:19;;;;;;;;;1.00;1.00;;;;;25.82;39.88;101040.28;5098297;27;45357;-69
2023/07/12 07:51:44;;;;;;;;;7.00;6.00;;;;;25.76;40.11;101029.28;5097981;27;45407;-69
2023/07/12 07:54:09;;;;;;;;;2.33;2.33;;;;;25.78;39.69;101040.75;5086168;27;45343;-68
2023/07/12 07:56:35;;;;;;;;;5.00;3.67;;;;;25.76;40.28;101033.91;5051977;28;45293;-69
2023/07/12 07:59:00;;;;;;;;;2.00;1.00;;;;;25.30;39.76;100963.91;5053795;28;46582;-69
2023/07/12 08:01:26;;;;;;;;;1.00;1.00;;;;;25.70;39.80;101046.56;5057703;28;45509;-70
2023/07/12 08:03:51;;;;;;;;;2.00;2.00;;;;;25.77;39.69;101047.28;5057828;28;45508;-71
2023/07/12 08:06:16;;;;;;;;;1.67;1.67;;;;;25.82;39.12;101037.56;5066836;27;45427;-71
2023/07/12 08:08:42;;;;;;;;;2.00;2.00;;;;;25.97;39.53;101040.63;5056341;28;45654;-68
2023/07/12 08:11:07;;;;;;;;;1.00;1.00;;;;;26.03;38.44;101045.16;5057455;28;45321;-68
2023/07/12 08:13:33;;;;;;;;;2.50;1.25;;;;;26.20;38.47;101046.03;5057569;28;45196;-69
2023/07/12 08:15:59;;;;;;;;;2.00;2.00;;;;;26.25;38.19;101059.81;5052676;28;45266;-69
2023/07/12 08:18:24;;;;;;;;;1.50;1.50;;;;;26.13;37.40;101039.91;5057282;28;46506;-69
2023/07/12 08:20:55;;;;;;;;;1.25;1.25;;;;;26.21;37.55;101047.69;5057628;28;45197;-68
2023/07/12 08:23:22;;;;;;;;;2.50;1.00;;;;;25.83;37.15;100990.19;5052862;28;45465;-68
2023/07/12 08:25:52;;;;;;;;;2.00;2.00;;;;;25.94;37.49;101013.88;5057034;28;45318;-69
2023/07/12 08:28:17;;;;;;;;;1.50;1.50;;;;;26.17;37.83;101046.53;5057139;28;45819;-68
2023/07/12 08:30:43;;;;;;;;;0.50;0.25;;;;;26.14;37.13;101044.28;5057285;28;45279;-70
2023/07/12 08:33:08;;;;;;;;;2.00;2.00;;;;;26.02;37.55;101048.91;5056166;28;45389;-71
2023/07/12 08:35:34;;;;;;;;;2.00;1.00;;;;;26.03;37.66;101050.59;5053992;28;45426;-69
2023/07/12 08:37:59;;;;;;;;;0.50;0.50;;;;;25.91;37.32;101045.16;5047767;28;48928;-69
2023/07/12 08:40:26;;;;;;;;;0.00;0.00;;;;;25.89;38.01;101049.19;5056311;28;45494;-70
2023/07/12 08:42:52;;;;;;;;;1.67;1.67;;;;;25.54;38.20;100986.50;5054804;28;45404;-71
2023/07/12 08:45:28;;;;;;;;;0.00;0.00;;;;;25.84;37.79;101035.47;5055700;28;45545;-72
2023/07/12 08:48:01;;;;;;;;;3.00;3.00;;;;;25.94;37.79;101055.56;5051231;28;45791;-71
2023/07/12 08:50:39;;;;;;;;;2.00;2.00;;;;;25.70;37.67;101016.63;5055982;27;45578;-69
2023/07/12 08:53:10;;;;;;;;;1.67;1.67;;;;;25.84;37.66;101043.63;5055230;28;45497;-70
2023/07/12 08:55:37;;;;;;;;;0.67;0.67;;;;;25.65;37.76;101011.03;5056326;28;45457;-69
2023/07/12 08:58:19;;;;;;;;;2.00;2.00;;;;;25.77;38.01;101030.09;5054251;28;48734;-71
2023/07/12 09:00:47;;;;;;;;;1.33;1.33;;;;;25.85;37.95;101054.28;5055713;28;45260;-70
2023/07/12 09:03:12;;;;;;;;;13.67;12.33;;;;;25.75;37.98;101043.97;5055970;28;45365;-70
2023/07/12 09:05:38;;;;;;;;;1.67;1.67;;;;;25.82;38.00;101060.19;5059186;28;45390;-69
2023/07/12 09:08:09;;;;;;;;;2.00;1.00;;;;;25.85;38.33;101072.53;5063267;27;45576;-68
2023/07/12 09:10:46;;;;;;;;;2.00;2.00;;;;;25.86;38.62;101066.00;5056575;28;45450;-70
2023/07/12 09:13:14;;;;;;;;;6.00;3.00;;;;;25.93;38.17;101070.25;5055185;28;45420;-70
2023/07/12 09:15:46;;;;;;;;;2.00;2.00;;;;;25.86;37.29;101052.38;5055463;28;45525;-70
2023/07/12 09:18:25;;;;;;;;;1.00;1.00;;;;;26.00;37.16;101078.28;5056658;28;45789;-72
2023/07/12 09:20:51;;;;;;;;;0.67;0.67;;;;;25.88;36.82;101047.53;5056804;28;45344;-70
2023/07/12 09:23:16;;;;;;;;;0.00;0.00;;;;;25.99;37.07;101066.56;5056961;28;45398;-69
2023/07/12 09:25:47;;;;;;;;;3.00;2.00;;;;;26.04;37.00;101068.59;5056864;28;45371;-72
2023/07/12 09:28:14;;;;;;;;;1.00;1.00;;;;;25.84;37.79;101028.09;5056742;28;46921;-71
2023/07/12 09:30:41;;;;;;;;;2.33;1.33;;;;;26.09;37.61;101076.88;5055724;28;45393;-71
2023/07/12 09:33:06;;;;;;;;;1.00;1.00;;;;;25.99;35.93;101065.75;5036364;28;45403;-72
2023/07/12 09:35:41;;;;;;;;;1.00;1.00;;;;;25.90;35.52;101053.56;5036134;28;45379;-73
2023/07/12 09:38:13;;;;;;;;;3.00;1.00;;;;;26.03;35.61;101089.56;5055188;28;48535;-71
2023/07/12 09:40:41;;;;;;;;;1.00;1.00;;;;;26.12;35.45;101075.56;5056217;28;45232;-72
2023/07/12 09:43:36;;;;;;;;;3.00;1.00;;;;;26.22;36.05;101087.50;5045166;28;45331;-71
2023/07/12 09:46:22;;;;;;;;;1.00;1.00;;;;;25.97;36.01;101033.28;5046237;28;45586;-73
2023/07/12 09:48:53;;;;;;;;;1.00;1.00;;;;;26.17;35.34;101073.78;5054194;28;48729;-84
2023/07/12 09:51:39;;;;;;;;;0.50;0.50;;;;;26.16;34.10;101093.09;5067998;28;45714;-79
2023/07/12 09:54:06;;;;;;;;;3.00;2.00;;;;;26.13;33.89;101088.97;5077407;28;45266;-78
2023/07/12 09:56:47;;;;;;;;;1.00;1.00;;;;;26.14;34.34;101090.63;5086154;27;45560;-70
2023/07/12 09:59:32;;;;;;;;;0.33;0.00;;;;;26.15;34.11;101073.19;5100574;27;45949;-73
2023/07/12 10:02:13;;;;;;;;;3.00;3.00;;;;;26.17;34.18;101072.97;5097275;27;45400;-70
2023/07/12 10:04:47;;;;;;;;;0.00;0.00;;;;;26.24;34.21;101069.06;5059137;28;45423;-71
2023/07/12 10:07:20;;;;;;;;;1.00;1.00;;;;;26.27;35.09;101075.91;5078858;27;45411;-71
2023/07/12 10:09:48;;;;;;;;;4.00;2.33;;;;;25.94;34.96;101030.22;5060450;28;46959;-70
2023/07/12 10:12:24;;;;;;;;;3.00;2.00;;;;;26.26;34.80;101072.38;5075056;27;45414;-69
2023/07/12 10:14:53;;;;;;;;;1.00;1.00;;;;;26.33;35.03;101085.84;5099270;27;45379;-70
2023/07/12 10:17:31;;;;;;;;;1.00;1.00;;;;;26.00;34.30;101029.25;5080075;27;45594;-70
2023/07/12 10:19:57;;;;;;;;;0.33;0.33;;;;;26.38;34.68;101091.44;5079533;28;46564;-71
2023/07/12 10:22:33;;;;;;;;;1.00;1.00;;;;;26.37;34.81;101090.59;5079717;27;45716;-70
2023/07/12 10:25:01;;;;;;;;;2.33;2.00;;;;;26.39;34.00;101087.66;5065551;28;45446;-72
2023/07/12 10:27:35;;;;;;;;;1.00;1.00;;;;;26.43;33.30;101080.66;5073736;27;45519;-71
2023/07/12 10:30:24;;;;;;;;;0.33;0.33;;;;;26.40;34.05;101074.84;5079239;28;46228;-73
2023/07/12 10:33:01;;;;;;;;;1.00;1.00;;;;;26.05;33.03;101018.50;5061144;28;45562;-70
2023/07/12 10:35:29;;;;;;;;;1.00;1.00;;;;;26.31;33.65;101074.38;5057126;28;45594;-70
2023/07/12 10:38:25;;;;;;;;;2.00;1.00;;;;;26.35;33.67;101070.94;5095338;27;45459;-70
2023/07/12 10:41:03;;;;;;;;;2.00;2.00;;;;;26.27;33.15;101057.66;5045243;27;48988;-72
2023/07/12 10:43:35;;;;;;;;;3.33;2.00;;;;;26.27;33.52;101057.66;5076375;28;46002;-71
2023/07/12 10:46:09;;;;;;;;;1.33;1.33;;;;;26.30;33.77;101054.47;5060433;27;45376;-69
2023/07/12 10:48:38;;;;;;;;;2.00;2.00;;;;;26.38;33.93;101065.00;5079156;27;45456;-74
2023/07/12 10:51:24;;;;;;;;;2.00;2.00;;;;;26.52;33.50;101062.84;5080915;27;45902;-70
2023/07/12 10:53:53;;;;;;;;;6.67;4.33;;;;;26.52;33.21;101070.19;5099554;27;45226;-74
2023/07/12 10:56:34;;;;;;;;;2.00;2.00;;;;;26.47;33.19;101064.66;5093143;27;45415;-70
2023/07/12 10:59:24;;;;;;;;;3.50;2.00;;;;;26.52;32.86;101062.84;5079041;28;45448;-71
2023/07/12 11:01:52;;;;;;;;;3.00;3.00;;;;;26.58;33.18;101055.59;5078279;27;45725;-69
2023/07/12 11:04:25;;;;;;;;;1.00;1.00;;;;;26.61;32.70;101068.72;5078778;28;45468;-70
2023/07/12 11:07:25;;;;;;;;;0.33;0.33;;;;;26.21;32.62;101003.28;5085576;27;45422;-73
2023/07/12 11:09:50;;;;;;;;;4.00;3.00;;;;;26.66;32.99;101066.13;5089676;27;45419;-69
2023/07/12 11:12:16;;;;;;;;;0.00;0.00;;;;;26.64;32.01;101058.19;5077975;27;45460;-69
2023/07/12 11:14:41;;;;;;;;;2.00;1.00;;;;;26.69;32.17;101054.72;5066915;27;45272;-69
2023/07/12 11:17:06;;;;;;;;;1.00;1.00;;;;;26.74;31.48;101057.53;5066692;27;45684;-70
2023/07/12 11:19:41;;;;;;;;;1.00;1.00;;;;;26.75;31.71;101059.19;5076988;28;45463;-69
2023/07/12 11:22:20;;;;;;;;;0.67;0.67;;;;;26.76;31.72;101055.41;5059065;28;47842;-70
2023/07/12 11:25:21;;;;;;;;;1.00;1.00;;;;;26.63;32.00;101037.44;5075919;28;45359;-69
2023/07/12 11:27:46;;;;;;;;;4.67;3.00;;;;;26.71;32.27;101058.03;5071527;27;45839;-71